This is the latest recevied weather packets stored in our database for station/object VA7NEZ. If no packets are shown the sender has not sent any weather packets the latest 10 day(s).
| Time | Temp. | Humidity | Pressure | Rain* | Wind** | Luminosity | Snow |
|---|---|---|---|---|---|---|---|
| 1777844902 | 26.67° C | 24% | 1012.4 hPa | 0 mm | - | - | - |
| 1777844422 | 26.67° C | 24% | 1012.5 hPa | 0 mm | - | - | - |
| 1777843887 | 26.11° C | 24% | 1012.7 hPa | 0 mm | - | - | - |
| 1777841847 | 0° C | 100% | 1013.2 hPa | 0 mm | - | - | - |
| 1777840782 | 24.44° C | 26% | 1013.5 hPa | 0 mm | - | - | - |
| 1777839736 | 23.33° C | 26% | 1013.8 hPa | 0 mm | - | - | - |
| 1777839221 | 22.78° C | 29% | 1013.9 hPa | 0 mm | - | - | - |
| 1777837627 | 21.67° C | 33% | 1014.3 hPa | 0 mm | - | - | - |
| 1777836541 | 20.56° C | 33% | 1014.6 hPa | 0 mm | - | - | - |
| 1777836017 | 20.56° C | 34% | 1014.9 hPa | 0 mm | - | - | - |
| 1777835417 | 20° C | 35% | 1015.1 hPa | 0 mm | - | - | - |
| 1777834877 | 20° C | 36% | 1015.3 hPa | 0 mm | - | - | - |
| 1777834342 | 20° C | 37% | 1015.5 hPa | 0 mm | - | - | - |
| 1777833807 | 19.44° C | 39% | 1015.6 hPa | 0 mm | - | - | - |
| 1777833242 | 0° C | 100% | 1015.8 hPa | 0 mm | - | - | - |
| 1777832742 | 18.89° C | 39% | 1015.8 hPa | 0 mm | - | - | - |
| 1777831597 | 17.78° C | 40% | 1016.1 hPa | 0 mm | - | - | - |
| 1777830516 | 17.22° C | 42% | 1016.3 hPa | 0 mm | - | - | - |
| 1777828418 | 16.11° C | 47% | 1016.7 hPa | 0 mm | - | - | - |
| 1777827828 | 15.56° C | 49% | 1016.8 hPa | 0 mm | - | - | - |
| 1777827259 | 15.56° C | 49% | 1017.1 hPa | 0 mm | - | - | - |
| 1777826733 | 15.56° C | 51% | 1017.2 hPa | 0 mm | - | - | - |
| 1777826232 | 15° C | 51% | 1017.3 hPa | 0 mm | - | - | - |
| 1777825726 | 15° C | 50% | 1017.4 hPa | 0 mm | - | - | - |
| 1777825232 | 14.44° C | 55% | 1017.3 hPa | 0 mm | - | - | - |
* Rain latest hour (hover to see other rain measurements)
** Current wind speed in m/s (hover to see current wind gust speed)